メインページ
METAR-TAF:

METAR-TAF

空港 :

メヘラーバード国際空港

テヘラン, イラン

緯度: 35-41N, 経度: 051-21E, 海抜: 1204m

現時点の気象観測

当レポートは38分前の20:00(UTC)に作成
の風 6kt
気温 29°C
湿度 25%
気圧 1009 hPa
視程10km以上
1,500メートル以下は雲なし、積乱雲なし

METAR: OIII 172000Z 36006KT CAVOK 29/07 Q1009 A2981 NOSIG

時間: 01:08 (20:38 UTC)

予報

当レポートは3時間8分前の17:30(UTC)に作成
予報は17日の 18時(UTC)から 18日の 24時(UTC)まで有効
東/北東の風 8kt
18日の 06時(UTC)から 18日の 12時(UTC)まで一時的に
南東の風 12kt

TAF: OIII 171730Z 1718/1824 07004MPS NSC TEMPO 1806/1812 13006MPS

4,000以上の空港の気象観測と天気予報(METAR報とTAF報)

利用可能な観測所は地図上に黄色い丸と赤い丸で示す。

丸の上にカーソルを重ねると観測所名を参照できる。

次にクリックすると気象観測と天気予報を参照できる。

マップの切り替え:黒色「×」印の緑ボタンをクリックして拡大、「-」印の緑ボタンをクリックして縮小、緑色の三角印をクリックして隣りの地図に切り替え


METAR-TAF: